Big Bear Station Historical Data
Daily Summary for May 13, 2017 Units:  English    Metric   Both
« Previous Day
Next Day »
Daily Weekly Monthly Yearly Custom
  High: Low: Average:
Temperature: 67.1 °F 39.7 °F 55.2 °F
Dew Point: 43.5 °F 9.6 °F 30.4 °F
Humidity: 78 % 15 % 43 %
Wind Speed: 6.3 mph 0.0 mph 3.2 mph
Wind Gust: -999.0 mph - -
Wind:- - WSW
Pressure: 30.00 in 29.95 in -
Precipitation: 0.00 in    
Historical Graphs
 
 
Tabular Data for May 13, 2017
Time Temperature Dew Point Pressure Wind Wind Speed Wind Gust Humidity Rainfall Rate (Hourly)
08:17 43.9 °F 12.9 °F 29.95 in NNW 1.7 mph -999.0 mph 28 % 0 in
08:32 46.4 °F 9.6 °F 29.96 in Calm   -999.0 mph 22 % 0 in
08:47 48.7 °F 15.3 °F 29.96 in North 2.7 mph -999.0 mph 26 % 0 in
09:02 50.2 °F 11.7 °F 29.96 in NNW 2.7 mph -999.0 mph 21 % 0 in
09:18 51.4 °F 12.7 °F 29.97 in NNW 2.7 mph -999.0 mph 21 % 0 in
09:33 52.9 °F 14.0 °F 29.97 in NNW 3.2 mph -999.0 mph 21 % 0 in
09:48 54.0 °F 16.0 °F 29.97 in NW 4.2 mph -999.0 mph 22 % 0 in
10:04 55.4 °F 13.8 °F 29.97 in WNW 3.7 mph -999.0 mph 19 % 0 in
10:19 56.7 °F 13.6 °F 29.98 in NNW 3.7 mph -999.0 mph 18 % 0 in
10:34 57.0 °F 13.9 °F 29.98 in NW 4.2 mph -999.0 mph 18 % 0 in
10:49 58.3 °F 10.8 °F 29.98 in NNW 4.7 mph -999.0 mph 15 % 0 in
11:05 60.3 °F 21.3 °F 29.98 in WNW 4.7 mph -999.0 mph 22 % 0 in
11:20 62.1 °F 20.5 °F 29.99 in NW 2.2 mph -999.0 mph 20 % 0 in
11:35 63.5 °F 25.0 °F 29.99 in NNE 3.2 mph -999.0 mph 23 % 0 in
11:50 63.7 °F 25.2 °F 29.99 in NNW 6.3 mph -999.0 mph 23 % 0 in
12:06 65.5 °F 27.7 °F 29.99 in NNW 6.3 mph -999.0 mph 24 % 0 in
12:21 63.9 °F 27.4 °F 29.99 in WNW 2.2 mph -999.0 mph 25 % 0 in
12:36 66.2 °F 29.3 °F 29.99 in North 5.8 mph -999.0 mph 25 % 0 in
12:51 65.5 °F 29.7 °F 29.99 in North 3.7 mph -999.0 mph 26 % 0 in
13:06 65.8 °F 32.7 °F 30.00 in NNW 4.7 mph -999.0 mph 29 % 0 in
13:22 66.2 °F 31.2 °F 30.00 in NNW 4.7 mph -999.0 mph 27 % 0 in
13:37 66.4 °F 27.5 °F 30.00 in NNW 4.7 mph -999.0 mph 23 % 0 in
13:52 66.2 °F 25.1 °F 30.00 in NNE 4.7 mph -999.0 mph 21 % 0 in
14:08 66.2 °F 25.1 °F 30.00 in NNE 4.2 mph -999.0 mph 21 % 0 in
14:23 67.1 °F 30.1 °F 29.99 in NW 5.8 mph -999.0 mph 25 % 0 in
14:38 66.7 °F 31.7 °F 29.99 in WNW 5.8 mph -999.0 mph 27 % 0 in
14:53 65.1 °F 40.8 °F 29.99 in NW 5.8 mph -999.0 mph 41 % 0 in
15:08 64.8 °F 36.5 °F 29.99 in NNE 5.8 mph -999.0 mph 35 % 0 in
15:24 63.9 °F 40.4 °F 29.98 in WNW 4.7 mph -999.0 mph 42 % 0 in
15:39 63.9 °F 42.1 °F 29.98 in NNW 4.7 mph -999.0 mph 45 % 0 in
15:54 63.0 °F 41.9 °F 29.98 in South 4.2 mph -999.0 mph 46 % 0 in
16:09 62.2 °F 41.7 °F 29.98 in WSW 3.7 mph -999.0 mph 47 % 0 in
16:24 62.1 °F 43.2 °F 29.98 in North 4.2 mph -999.0 mph 50 % 0 in
16:40 61.5 °F 42.2 °F 29.98 in South 5.8 mph -999.0 mph 49 % 0 in
16:55 63.7 °F 43.1 °F 29.98 in NNW 3.2 mph -999.0 mph 47 % 0 in
17:10 62.4 °F 43.5 °F 29.98 in NNE 4.7 mph -999.0 mph 50 % 0 in
17:26 61.3 °F 43.5 °F 29.98 in WNW 2.7 mph -999.0 mph 52 % 0 in
17:41 61.5 °F 43.2 °F 29.97 in NW 4.2 mph -999.0 mph 51 % 0 in
17:57 60.6 °F 42.9 °F 29.97 in NNW 3.7 mph -999.0 mph 52 % 0 in
18:12 60.6 °F 43.4 °F 29.96 in NW 3.7 mph -999.0 mph 53 % 0 in
18:28 56.8 °F 42.2 °F 29.96 in WNW 2.2 mph -999.0 mph 58 % 0 in
18:43 56.3 °F 42.2 °F 29.96 in NNE 3.2 mph -999.0 mph 59 % 0 in
18:58 56.1 °F 42.4 °F 29.97 in Calm   -999.0 mph 60 % 0 in
19:13 53.4 °F 41.5 °F 29.96 in NNW 2.7 mph -999.0 mph 64 % 0 in
19:28 50.4 °F 41.0 °F 29.96 in Calm   -999.0 mph 70 % 0 in
19:44 49.1 °F 40.8 °F 29.96 in Calm   -999.0 mph 73 % 0 in
19:59 47.3 °F 39.8 °F 29.96 in Calm   -999.0 mph 75 % 0 in
20:14 45.7 °F 39.2 °F 29.96 in Calm   -999.0 mph 78 % 0 in
20:29 44.4 °F 37.0 °F 29.97 in South 1.1 mph -999.0 mph 75 % 0 in
20:45 43.7 °F 34.6 °F 29.97 in South 1.7 mph -999.0 mph 70 % 0 in
21:00 42.8 °F 31.8 °F 29.97 in South 1.7 mph -999.0 mph 65 % 0 in
21:15 42.1 °F 28.0 °F 29.97 in Calm   -999.0 mph 57 % 0 in
21:30 41.7 °F 25.8 °F 29.97 in South 1.7 mph -999.0 mph 53 % 0 in
21:45 41.5 °F 32.8 °F 29.97 in Calm   -999.0 mph 71 % 0 in
22:01 40.6 °F 32.6 °F 29.97 in South 1.7 mph -999.0 mph 73 % 0 in
22:16 40.3 °F 30.9 °F 29.98 in South 1.7 mph -999.0 mph 69 % 0 in
22:31 39.9 °F 29.8 °F 29.98 in South 2.2 mph -999.0 mph 67 % 0 in
22:46 39.7 °F 30.7 °F 29.98 in South 2.2 mph -999.0 mph 70 % 0 in
23:01 39.9 °F 29.5 °F 29.98 in South 2.7 mph -999.0 mph 66 % 0 in
23:17 41.2 °F 25.4 °F 29.98 in SSW 2.7 mph -999.0 mph 53 % 0 in
23:32 40.1 °F 24.3 °F 29.97 in SSE 2.2 mph -999.0 mph 53 % 0 in
23:47 39.7 °F 21.1 °F 29.97 in South 2.2 mph -999.0 mph 47 % 0 in
Big Bear CA Weather
Compliments of Weather Underground - 1.25 mb